Time;durP1;ratioP1;P1;durP2;ratioP2;P2;SDS_P1;SDS_P2;PMS_P1;PMS_P2;Temp;Humidity;BMP_temperature;BMP_pressure;BME280_temperature;BME280_humidity;BME280_pressure;Samples;Min_cycle;Max_cycle;Signal;HPM_P1;HPM_P2
2022/05/06 00:01:39;;;;;;;26.37;15.97;;;12.70;42.40;;;;;;5052729;28;20414;-70
2022/05/06 00:04:06;;;;;;;20.07;16.10;;;12.80;42.50;;;;;;5052715;28;20171;-70
2022/05/06 00:06:32;;;;;;;24.80;14.63;;;12.90;42.60;;;;;;5052800;28;20434;-70
2022/05/06 00:08:58;;;;;;;19.80;17.00;;;13.00;42.70;;;;;;5052423;28;20429;-69
2022/05/06 00:11:25;;;;;;;16.23;13.30;;;12.90;43.30;;;;;;5051614;28;20421;-70
2022/05/06 00:13:52;;;;;;;20.60;15.13;;;12.80;43.30;;;;;;5052575;28;20414;-70
2022/05/06 00:16:22;;;;;;;18.40;15.37;;;12.80;43.10;;;;;;5052631;28;20422;-70
2022/05/06 00:18:48;;;;;;;18.00;15.00;;;12.80;43.80;;;;;;5051971;28;20460;-71
2022/05/06 00:21:13;;;;;;;17.60;15.83;;;12.80;43.80;;;;;;5052592;28;20405;-70
2022/05/06 00:23:39;;;;;;;29.50;17.60;;;12.80;43.80;;;;;;5051343;28;20225;-70
2022/05/06 00:26:05;;;;;;;23.90;17.47;;;12.80;43.80;;;;;;5051639;28;20604;-71
2022/05/06 00:28:30;;;;;;;26.67;18.27;;;12.80;43.20;;;;;;5052248;28;20425;-71
2022/05/06 00:30:57;;;;;;;25.60;19.47;;;12.90;42.80;;;;;;5052348;28;20207;-71
2022/05/06 00:33:24;;;;;;;21.17;17.30;;;12.70;42.00;;;;;;5052529;28;20170;-70
2022/05/06 00:35:58;;;;;;;18.10;15.77;;;12.60;43.60;;;;;;5052458;28;20463;-70
2022/05/06 00:38:24;;;;;;;23.10;17.73;;;12.50;43.50;;;;;;5052123;28;20996;-70
2022/05/06 00:40:51;;;;;;;28.03;21.47;;;12.50;44.30;;;;;;5052184;28;20412;-71
2022/05/06 00:43:18;;;;;;;23.47;19.60;;;12.40;45.80;;;;;;5050707;28;20433;-69
2022/05/06 00:45:54;;;;;;;19.20;15.43;;;12.40;46.20;;;;;;5052113;28;20488;-70
2022/05/06 00:48:26;;;;;;;18.70;14.40;;;12.40;46.10;;;;;;5051904;28;20439;-70
2022/05/06 00:50:53;;;;;;;25.50;19.10;;;12.40;45.60;;;;;;5052227;28;20460;-71
2022/05/06 00:53:19;;;;;;;28.00;18.67;;;12.40;45.20;;;;;;5050873;28;20466;-71
2022/05/06 00:55:45;;;;;;;24.93;19.20;;;12.50;44.60;;;;;;5052509;28;20488;-70
2022/05/06 00:58:10;;;;;;;19.17;17.10;;;12.60;44.70;;;;;;5051752;28;20432;-71
2022/05/06 01:00:36;;;;;;;15.87;14.17;;;12.50;44.80;;;;;;5051966;28;20425;-70
2022/05/06 01:03:02;;;;;;;20.43;16.97;;;12.50;45.10;;;;;;5050571;28;20174;-70
2022/05/06 01:05:29;;;;;;;18.43;16.53;;;12.50;45.40;;;;;;5051817;28;20179;-70
2022/05/06 01:07:56;;;;;;;21.30;17.80;;;12.50;45.80;;;;;;5051615;28;20190;-70
2022/05/06 01:10:22;;;;;;;25.33;17.67;;;12.50;45.40;;;;;;5051739;28;20891;-69
2022/05/06 01:12:48;;;;;;;21.87;16.93;;;12.60;45.10;;;;;;5051725;28;20440;-71
2022/05/06 01:15:17;;;;;;;25.83;17.50;;;12.60;45.10;;;;;;5051831;28;20259;-70
2022/05/06 01:17:43;;;;;;;16.90;14.60;;;12.60;45.00;;;;;;5051564;28;20801;-69
2022/05/06 01:20:09;;;;;;;24.50;16.90;;;12.70;43.90;;;;;;5051771;28;20423;-72
2022/05/06 01:22:35;;;;;;;16.87;15.20;;;12.60;44.40;;;;;;5051563;28;20190;-70
2022/05/06 01:25:01;;;;;;;20.57;15.97;;;12.70;44.80;;;;;;5051533;28;20500;-71
2022/05/06 01:27:31;;;;;;;20.80;16.67;;;12.60;45.00;;;;;;5051312;28;20957;-69
2022/05/06 01:29:57;;;;;;;17.00;15.10;;;12.40;45.80;;;;;;5051528;28;20487;-70
2022/05/06 01:32:25;;;;;;;23.50;18.13;;;12.50;46.10;;;;;;5051831;28;20911;-69
2022/05/06 01:34:52;;;;;;;23.30;15.47;;;12.50;46.50;;;;;;5051532;28;20413;-69
2022/05/06 01:37:19;;;;;;;22.10;13.90;;;12.60;44.40;;;;;;5053311;28;20999;-70
2022/05/06 01:39:48;;;;;;;30.63;17.80;;;12.60;44.30;;;;;;5055728;28;20471;-70
2022/05/06 01:42:18;;;;;;;20.47;18.33;;;12.70;43.90;;;;;;5055662;28;20794;-70
2022/05/06 01:44:45;;;;;;;16.80;15.00;;;12.60;44.70;;;;;;5055639;28;20420;-68
2022/05/06 01:47:17;;;;;;;25.87;20.03;;;12.50;45.30;;;;;;5055187;28;20413;-69
2022/05/06 01:49:45;;;;;;;19.53;15.77;;;12.60;45.40;;;;;;5055618;28;20614;-69
2022/05/06 01:52:16;;;;;;;25.93;17.07;;;12.70;43.70;;;;;;5055664;28;20405;-71
2022/05/06 01:54:42;;;;;;;19.53;17.30;;;12.50;45.30;;;;;;5055893;28;20405;-70
2022/05/06 01:57:08;;;;;;;23.67;19.27;;;12.40;46.20;;;;;;5055192;28;20405;-70
2022/05/06 01:59:33;;;;;;;19.57;17.30;;;12.50;45.40;;;;;;5055170;28;20216;-70
2022/05/06 02:01:59;;;;;;;23.47;18.43;;;12.40;46.60;;;;;;5055009;28;20174;-70
2022/05/06 02:07:09;;;;;;;22.77;18.60;;;12.50;45.80;;;;;;5054880;28;20187;-69
2022/05/06 02:09:35;;;;;;;19.87;16.93;;;12.60;44.90;;;;;;5054730;28;20456;-70
2022/05/06 02:12:01;;;;;;;20.07;15.33;;;12.70;43.70;;;;;;5054843;28;20410;-70
2022/05/06 02:14:27;;;;;;;21.63;17.97;;;12.60;43.90;;;;;;5055170;28;20486;-70
2022/05/06 02:16:53;;;;;;;25.20;19.73;;;12.70;43.70;;;;;;5053938;28;20417;-70
2022/05/06 02:19:18;;;;;;;26.43;20.77;;;12.70;43.70;;;;;;5054505;28;20452;-70
2022/05/06 02:21:44;;;;;;;22.33;15.03;;;12.90;43.10;;;;;;5054914;28;20210;-71
2022/05/06 02:24:10;;;;;;;23.60;17.33;;;12.90;43.30;;;;;;5054868;28;20185;-70
2022/05/06 02:26:36;;;;;;;28.20;16.20;;;12.90;43.70;;;;;;5054815;28;20554;-70
2022/05/06 02:29:02;;;;;;;19.57;15.20;;;12.90;42.10;;;;;;5054348;28;20426;-70
2022/05/06 02:34:16;;;;;;;23.03;16.07;;;12.90;41.20;;;;;;5055114;28;20403;-70
2022/05/06 02:36:43;;;;;;;18.67;16.67;;;12.90;40.80;;;;;;5054635;28;20765;-69
2022/05/06 02:39:08;;;;;;;17.63;15.10;;;12.90;40.30;;;;;;5052977;28;20441;-70
2022/05/06 02:41:34;;;;;;;24.40;18.57;;;12.90;39.70;;;;;;5054579;28;20409;-70
2022/05/06 02:44:02;;;;;;;22.60;16.63;;;13.00;39.00;;;;;;5054401;28;20647;-70
2022/05/06 02:46:27;;;;;;;18.97;16.10;;;12.80;40.40;;;;;;5054502;28;20412;-71
2022/05/06 02:48:53;;;;;;;19.43;14.90;;;12.80;40.70;;;;;;5053112;28;20918;-71
2022/05/06 02:51:18;;;;;;;23.30;15.87;;;12.80;40.10;;;;;;5054410;28;20257;-70
2022/05/06 02:53:44;;;;;;;26.20;18.40;;;12.60;41.30;;;;;;5054440;28;20178;-70
2022/05/06 02:56:10;;;;;;;19.50;16.43;;;12.40;42.30;;;;;;5054603;28;20232;-70
2022/05/06 02:58:35;;;;;;;25.43;17.67;;;12.40;43.40;;;;;;5054456;28;20199;-70
2022/05/06 03:01:01;;;;;;;19.13;16.87;;;12.40;43.40;;;;;;5054514;28;20174;-70
2022/05/06 03:03:26;;;;;;;21.20;17.23;;;12.50;43.50;;;;;;5054232;28;20175;-70
2022/05/06 03:05:52;;;;;;;18.47;16.47;;;12.60;42.80;;;;;;5054134;28;20652;-70
2022/05/06 03:08:17;;;;;;;25.07;17.23;;;12.60;41.90;;;;;;5053926;28;20298;-70
2022/05/06 03:10:43;;;;;;;20.07;16.43;;;12.70;41.90;;;;;;5053995;28;20202;-70
2022/05/06 03:13:08;;;;;;;28.03;21.90;;;12.70;42.50;;;;;;5053885;28;20182;-70
2022/05/06 03:15:35;;;;;;;19.23;17.17;;;12.40;43.40;;;;;;5053981;28;20262;-70
2022/05/06 03:18:01;;;;;;;23.33;19.00;;;12.30;46.50;;;;;;5053550;28;20576;-70
2022/05/06 03:20:28;;;;;;;20.90;18.40;;;12.30;46.20;;;;;;5053831;28;20413;-70
2022/05/06 03:22:53;;;;;;;24.20;17.07;;;12.20;46.60;;;;;;5053856;28;20420;-70
2022/05/06 03:25:20;;;;;;;24.27;19.60;;;12.30;46.50;;;;;;5053678;28;20433;-71
2022/05/06 03:28:07;;;;;;;19.63;17.53;;;12.30;45.50;;;;;;5053246;28;20226;-69
2022/05/06 03:30:39;;;;;;;39.37;22.23;;;12.40;45.50;;;;;;5053634;28;20514;-70
2022/05/06 03:33:09;;;;;;;28.27;22.10;;;12.20;46.10;;;;;;5053526;28;20409;-70
2022/05/06 03:35:36;;;;;;;30.47;21.33;;;12.00;47.10;;;;;;5052252;28;20423;-70
2022/05/06 03:38:03;;;;;;;20.87;18.10;;;11.90;48.10;;;;;;5052952;28;20524;-69
2022/05/06 03:40:29;;;;;;;28.77;21.80;;;12.00;49.10;;;;;;5053347;28;20435;-70
2022/05/06 03:42:54;;;;;;;26.20;20.63;;;12.00;48.30;;;;;;5053341;28;20417;-69
2022/05/06 03:45:20;;;;;;;30.80;19.63;;;11.80;49.60;;;;;;5053264;28;20425;-70
2022/05/06 03:47:45;;;;;;;34.53;24.93;;;11.80;50.60;;;;;;5052950;28;20279;-71
2022/05/06 03:52:55;;;;;;;25.70;21.93;;;11.70;51.90;;;;;;5053427;28;20703;-70
2022/05/06 03:55:21;;;;;;;31.30;21.60;;;11.70;52.90;;;;;;5052769;28;20449;-70
2022/05/06 03:57:47;;;;;;;31.20;20.10;;;11.80;52.90;;;;;;5053179;28;20595;-70
2022/05/06 04:00:14;;;;;;;22.80;20.43;;;11.90;51.90;;;;;;5055140;28;20186;-69
2022/05/06 04:02:40;;;;;;;30.13;20.80;;;12.00;51.10;;;;;;5053612;28;20444;-71
2022/05/06 04:05:06;;;;;;;22.90;18.47;;;12.10;50.10;;;;;;5052913;28;20422;-70
2022/05/06 04:07:32;;;;;;;33.93;24.40;;;12.10;49.70;;;;;;5052569;28;20664;-70
2022/05/06 04:09:58;;;;;;;28.00;22.57;;;12.00;48.50;;;;;;5052755;28;20468;-71
2022/05/06 04:12:23;;;;;;;25.60;20.00;;;11.90;49.10;;;;;;5052637;28;20416;-70
2022/05/06 04:14:50;;;;;;;26.30;18.37;;;12.00;50.10;;;;;;5052864;28;20174;-69
2022/05/06 04:17:16;;;;;;;32.47;22.37;;;12.20;49.10;;;;;;5053733;28;20178;-70
2022/05/06 04:23:28;;;;;;;22.33;18.43;;;12.30;47.70;;;;;;5101552;23;20589;-71
2022/05/06 04:25:14;;;;;;;20.27;17.87;;;12.60;46.20;;;;;;5033137;28;20440;-71
2022/05/06 04:27:40;;;;;;;19.53;16.33;;;12.50;45.60;;;;;;5032835;28;20805;-71
2022/05/06 04:30:06;;;;;;;24.13;20.77;;;12.60;45.60;;;;;;5033112;28;20496;-71
2022/05/06 04:32:31;;;;;;;22.77;19.20;;;12.60;45.10;;;;;;5031930;28;20421;-71
2022/05/06 04:34:57;;;;;;;31.27;22.40;;;12.40;45.80;;;;;;5033319;28;20414;-71
2022/05/06 04:37:23;;;;;;;29.27;19.53;;;12.30;45.50;;;;;;5032810;28;20172;-71
2022/05/06 04:39:49;;;;;;;42.47;22.10;;;12.20;47.40;;;;;;5032898;28;20195;-71
2022/05/06 04:42:15;;;;;;;30.00;20.47;;;12.10;47.80;;;;;;5031817;28;20428;-71
2022/05/06 04:44:41;;;;;;;24.10;19.97;;;12.20;48.30;;;;;;5033225;28;20197;-71
2022/05/06 04:47:06;;;;;;;21.47;17.20;;;12.40;47.60;;;;;;5032797;28;20422;-71
2022/05/06 04:49:32;;;;;;;18.60;15.47;;;12.40;46.90;;;;;;5031732;28;20211;-72
2022/05/06 04:51:57;;;;;;;24.43;17.93;;;12.50;46.50;;;;;;5031786;28;20172;-71
2022/05/06 04:54:24;;;;;;;28.90;18.20;;;12.50;46.20;;;;;;5031035;28;20175;-71
2022/05/06 04:56:49;;;;;;;27.13;20.03;;;12.50;46.40;;;;;;5032382;28;20178;-71
2022/05/06 04:59:15;;;;;;;24.90;20.03;;;12.40;45.80;;;;;;5032645;28;20497;-71
2022/05/06 05:01:41;;;;;;;30.73;20.30;;;12.20;47.50;;;;;;5032383;28;20208;-72
2022/05/06 05:04:06;;;;;;;22.83;19.53;;;12.00;48.70;;;;;;5032690;28;20421;-71
2022/05/06 05:06:33;;;;;;;22.60;16.70;;;12.20;49.00;;;;;;5032596;28;20175;-71
2022/05/06 05:08:59;;;;;;;18.70;16.27;;;12.40;48.50;;;;;;5031860;28;20202;-70
2022/05/06 05:11:25;;;;;;;21.60;15.37;;;12.60;47.70;;;;;;5032060;28;20464;-71
2022/05/06 05:13:50;;;;;;;29.63;18.80;;;12.60;46.60;;;;;;5031986;28;20417;-71
2022/05/06 05:16:16;;;;;;;19.07;17.07;;;12.70;45.50;;;;;;5030771;28;20194;-70
2022/05/06 05:18:42;;;;;;;23.73;17.93;;;12.70;43.90;;;;;;5031618;28;20254;-71
2022/05/06 05:21:07;;;;;;;22.70;18.53;;;12.80;43.80;;;;;;5032746;28;20225;-71
2022/05/06 05:23:33;;;;;;;21.07;17.60;;;12.90;43.90;;;;;;5032565;28;20179;-71
2022/05/06 05:25:59;;;;;;;27.77;15.60;;;13.00;42.80;;;;;;5032257;28;20177;-70
2022/05/06 05:28:24;;;;;;;21.67;14.70;;;12.80;43.80;;;;;;5030543;28;20201;-70
2022/05/06 05:30:50;;;;;;;26.60;16.10;;;13.00;43.80;;;;;;5031855;28;20213;-70
2022/05/06 05:33:15;;;;;;;21.30;18.10;;;13.00;41.40;;;;;;5032203;28;20184;-70
2022/05/06 05:35:41;;;;;;;22.13;16.87;;;12.70;42.80;;;;;;5033251;28;20272;-71
2022/05/06 05:38:06;;;;;;;20.33;16.03;;;12.70;42.90;;;;;;5031548;28;20736;-70
2022/05/06 05:40:32;;;;;;;17.63;15.87;;;12.80;42.20;;;;;;5031669;28;20658;-72
2022/05/06 05:42:57;;;;;;;17.97;14.40;;;13.10;39.80;;;;;;5030432;28;20593;-71
2022/05/06 05:48:22;;;;;;;18.00;16.10;;;12.90;38.80;;;;;;5031755;28;20238;-71
2022/05/06 05:50:49;;;;;;;19.57;17.50;;;12.60;40.80;;;;;;5031587;28;20512;-71
2022/05/06 05:53:14;;;;;;;19.63;16.80;;;12.40;42.50;;;;;;5031588;28;20414;-71
2022/05/06 05:55:40;;;;;;;21.47;15.23;;;12.70;42.30;;;;;;5030220;28;20441;-71
2022/05/06 05:58:05;;;;;;;20.77;13.97;;;12.90;40.90;;;;;;5031257;28;20195;-71
2022/05/06 06:00:31;;;;;;;19.13;15.00;;;13.10;40.10;;;;;;5031613;28;20184;-71
2022/05/06 06:02:56;;;;;;;21.37;15.43;;;13.30;38.80;;;;;;5031651;28;20548;-71
2022/05/06 06:05:23;;;;;;;17.43;14.23;;;13.40;36.70;;;;;;5030353;28;20674;-70
2022/05/06 06:07:48;;;;;;;16.77;14.87;;;13.40;37.70;;;;;;5029887;28;20188;-69
2022/05/06 06:10:14;;;;;;;15.33;12.57;;;13.50;36.90;;;;;;5031277;28;20455;-69
2022/05/06 06:12:40;;;;;;;12.90;11.60;;;13.60;35.10;;;;;;5030271;28;20263;-70
2022/05/06 06:15:06;;;;;;;18.03;14.57;;;13.70;36.20;;;;;;5031494;28;20238;-70
2022/05/06 06:17:32;;;;;;;13.33;11.93;;;13.00;37.30;;;;;;5031132;28;20191;-69
2022/05/06 06:19:58;;;;;;;18.30;14.80;;;13.10;39.00;;;;;;5031511;28;20969;-69
2022/05/06 06:22:23;;;;;;;21.53;15.90;;;12.90;37.80;;;;;;5031660;28;20179;-69
2022/05/06 06:24:49;;;;;;;19.13;13.47;;;12.90;39.50;;;;;;5033397;28;20285;-69
2022/05/06 06:27:15;;;;;;;16.97;13.17;;;12.80;39.50;;;;;;5034927;28;20260;-70
2022/05/06 06:29:41;;;;;;;19.10;14.93;;;13.00;38.90;;;;;;5034902;28;20832;-70
2022/05/06 06:32:07;;;;;;;15.70;13.97;;;13.30;38.20;;;;;;5035142;28;20426;-70
2022/05/06 06:34:33;;;;;;;19.40;16.10;;;13.30;37.50;;;;;;5035115;28;20183;-70
2022/05/06 06:36:58;;;;;;;15.80;13.73;;;13.00;38.80;;;;;;5033801;28;20488;-69
2022/05/06 06:39:24;;;;;;;16.50;14.27;;;13.30;39.10;;;;;;5036447;28;20187;-69
2022/05/06 06:41:49;;;;;;;16.33;13.63;;;13.50;38.70;;;;;;5036803;28;20173;-69
2022/05/06 06:44:15;;;;;;;16.60;12.13;;;13.50;37.20;;;;;;5036491;28;20187;-69
2022/05/06 06:46:40;;;;;;;17.00;13.23;;;13.60;37.50;;;;;;5035417;28;20182;-70
2022/05/06 06:49:06;;;;;;;19.77;13.90;;;13.30;39.10;;;;;;5034901;28;20200;-68
2022/05/06 06:51:32;;;;;;;16.17;13.80;;;13.30;39.10;;;;;;5035143;28;20673;-68
2022/05/06 06:53:57;;;;;;;15.17;13.33;;;13.00;40.10;;;;;;5034327;28;20167;-67
2022/05/06 06:56:23;;;;;;;17.40;13.10;;;13.20;39.00;;;;;;5028343;28;20242;-68
2022/05/06 06:58:49;;;;;;;20.03;14.93;;;13.30;38.50;;;;;;5030810;28;20196;-68
2022/05/06 07:01:15;;;;;;;15.93;11.70;;;12.80;40.70;;;;;;5030754;28;20191;-68
2022/05/06 07:03:40;;;;;;;13.43;12.00;;;13.00;40.80;;;;;;5029957;28;20941;-68
2022/05/06 07:14:18;;;;;;;14.00;10.87;;;12.40;42.70;;;;;;5017590;28;20554;-69
2022/05/06 07:16:44;;;;;;;12.00;10.33;;;12.40;42.30;;;;;;5029578;28;20421;-69
2022/05/06 07:19:10;;;;;;;13.50;9.70;;;12.30;43.00;;;;;;5029289;28;21208;-69
2022/05/06 07:21:35;;;;;;;15.00;11.67;;;12.40;42.90;;;;;;5029476;28;20202;-69
2022/05/06 07:24:01;;;;;;;12.23;10.80;;;12.30;43.30;;;;;;5030279;28;20188;-69
2022/05/06 07:26:27;;;;;;;17.00;12.43;;;12.20;42.60;;;;;;5030763;28;20426;-69
2022/05/06 07:28:53;;;;;;;13.80;12.40;;;12.10;43.00;;;;;;5030197;28;20202;-69
2022/05/06 07:31:18;;;;;;;20.03;12.33;;;12.30;43.30;;;;;;5030735;28;20531;-65
2022/05/06 07:33:44;;;;;;;13.37;10.93;;;12.20;43.30;;;;;;5031180;28;20188;-68
2022/05/06 07:36:09;;;;;;;16.23;12.43;;;12.30;43.00;;;;;;5029098;28;20588;-68
2022/05/06 07:38:35;;;;;;;10.10;8.97;;;12.40;43.40;;;;;;5031205;28;20199;-65
2022/05/06 07:41:03;;;;;;;11.17;9.00;;;12.40;41.70;;;;;;5030738;28;20258;-69
2022/05/06 07:43:29;;;;;;;12.87;9.77;;;12.40;41.50;;;;;;5030940;28;20187;-69
2022/05/06 07:45:55;;;;;;;9.73;8.83;;;12.60;39.50;;;;;;5032845;28;20517;-66
2022/05/06 07:48:20;;;;;;;12.27;9.97;;;12.70;38.60;;;;;;5031357;28;20488;-69
2022/05/06 07:50:46;;;;;;;10.20;8.20;;;12.70;37.60;;;;;;5030923;28;20261;-68
2022/05/06 07:53:13;;;;;;;13.07;10.37;;;12.60;38.50;;;;;;5030207;28;20183;-68
2022/05/06 07:55:39;;;;;;;11.77;10.40;;;12.50;39.10;;;;;;5029898;28;20773;-69
2022/05/06 07:58:05;;;;;;;9.63;8.20;;;12.50;38.40;;;;;;5027635;28;20521;-69
2022/05/06 08:00:31;;;;;;;11.13;9.57;;;12.70;37.60;;;;;;5030174;28;20908;-68
2022/05/06 08:05:43;;;;;;;12.13;9.80;;;12.50;37.80;;;;;;5010084;28;20812;-68
2022/05/06 08:08:09;;;;;;;10.80;9.70;;;12.70;38.60;;;;;;5009178;28;20443;-67
2022/05/06 08:10:34;;;;;;;12.87;10.90;;;13.10;36.10;;;;;;5009028;28;20474;-68
2022/05/06 08:13:01;;;;;;;10.23;9.20;;;13.30;34.90;;;;;;5009893;28;20194;-68
2022/05/06 08:15:27;;;;;;;10.13;9.23;;;13.00;35.00;;;;;;5026372;28;20202;-68
2022/05/06 08:17:53;;;;;;;11.80;9.60;;;13.20;34.60;;;;;;5026216;28;20430;-68
2022/05/06 08:20:18;;;;;;;14.53;9.77;;;12.90;35.60;;;;;;5029669;28;20198;-68
2022/05/06 08:22:44;;;;;;;12.27;9.47;;;13.00;35.60;;;;;;5031079;28;20184;-69
2022/05/06 08:25:10;;;;;;;10.97;9.63;;;13.30;34.50;;;;;;5033214;28;20683;-69
2022/05/06 08:27:43;;;;;;;10.73;9.73;;;13.10;33.70;;;;;;5032881;28;20175;-67
2022/05/06 08:30:12;;;;;;;10.83;8.80;;;12.90;34.70;;;;;;5031540;28;20203;-68
2022/05/06 08:32:38;;;;;;;12.30;10.90;;;13.20;35.20;;;;;;5029442;28;20418;-67
2022/05/06 08:35:05;;;;;;;10.53;8.80;;;13.30;34.10;;;;;;5030806;28;20414;-68
2022/05/06 08:37:45;;;;;;;10.93;9.70;;;13.50;34.10;;;;;;5030077;28;20896;-67
2022/05/06 08:40:25;;;;;;;10.43;9.57;;;13.10;33.70;;;;;;5030401;28;20417;-67
2022/05/06 08:42:52;;;;;;;9.73;8.83;;;13.00;35.10;;;;;;5030469;28;20798;-67
2022/05/06 08:50:59;;;;;;;13.73;9.33;;;13.40;32.50;;;;;;5032435;28;20478;-68
2022/05/06 08:53:28;;;;;;;10.33;8.80;;;13.40;34.00;;;;;;5032297;28;20426;-67
2022/05/06 08:55:56;;;;;;;11.33;9.90;;;13.50;34.00;;;;;;5032165;28;20446;-67
2022/05/06 08:58:23;;;;;;;13.07;8.80;;;13.50;32.40;;;;;;5031974;28;20803;-67
2022/05/06 09:00:49;;;;;;;11.23;10.13;;;13.50;32.50;;;;;;5032371;28;20766;-67
2022/05/06 09:03:17;;;;;;;10.03;9.13;;;13.90;32.40;;;;;;5032336;28;20842;-68
2022/05/06 09:05:53;;;;;;;10.00;8.33;;;14.20;31.20;;;;;;5032320;28;20419;-67
2022/05/06 09:08:20;;;;;;;12.10;10.83;;;14.40;29.90;;;;;;5032028;28;20440;-67
2022/05/06 09:11:00;;;;;;;12.03;10.50;;;14.60;29.90;;;;;;5032237;28;20457;-68
2022/05/06 09:13:26;;;;;;;13.53;10.57;;;14.30;29.00;;;;;;5030726;28;20416;-67
2022/05/06 09:18:37;;;;;;;10.27;9.43;;;14.10;30.00;;;;;;5031862;28;20467;-67
2022/05/06 09:21:10;;;;;;;9.77;8.97;;;14.30;29.50;;;;;;5030781;28;20424;-67
2022/05/06 09:23:36;;;;;;;10.17;9.37;;;14.40;29.00;;;;;;5030731;28;20453;-67
2022/05/06 09:26:01;;;;;;;10.47;9.57;;;14.40;28.80;;;;;;5031830;28;20803;-68
2022/05/06 09:28:28;;;;;;;12.27;11.33;;;14.90;28.20;;;;;;5031520;28;20559;-67
2022/05/06 09:31:06;;;;;;;9.83;9.00;;;14.50;26.40;;;;;;5031811;28;20213;-67
2022/05/06 09:33:35;;;;;;;10.90;10.00;;;14.40;27.50;;;;;;5031651;28;20427;-68
2022/05/06 09:36:29;;;;;;;10.13;9.23;;;14.20;27.70;;;;;;5032333;28;20472;-68
2022/05/06 09:39:11;;;;;;;15.40;11.93;;;14.70;28.00;;;;;;5031641;28;20448;-68
2022/05/06 09:41:38;;;;;;;13.50;12.10;;;15.10;26.20;;;;;;5032124;28;20410;-68
2022/05/06 09:44:06;;;;;;;12.17;11.07;;;15.40;25.50;;;;;;5031936;28;20518;-67
2022/05/06 09:46:32;;;;;;;11.90;10.80;;;15.60;25.00;;;;;;5031743;28;20437;-67
2022/05/06 09:49:00;;;;;;;12.00;11.00;;;15.70;25.10;;;;;;5031489;28;20819;-67
2022/05/06 09:51:34;;;;;;;11.70;10.67;;;15.10;25.60;;;;;;5031458;28;20469;-67
2022/05/06 09:54:03;;;;;;;12.00;11.17;;;15.40;24.90;;;;;;5031365;28;20500;-67
2022/05/06 09:56:28;;;;;;;12.73;11.60;;;15.20;23.30;;;;;;5031371;28;20501;-67
2022/05/06 09:58:56;;;;;;;13.43;12.20;;;15.20;24.50;;;;;;5032344;28;20517;-67
2022/05/06 10:01:22;;;;;;;12.67;11.77;;;15.20;25.00;;;;;;5035585;28;20178;-67
2022/05/06 10:03:50;;;;;;;12.40;11.33;;;15.50;24.40;;;;;;5035379;28;20924;-68
2022/05/06 10:06:16;;;;;;;13.87;12.93;;;15.50;23.60;;;;;;5035551;28;20424;-68
2022/05/06 10:08:47;;;;;;;12.67;11.77;;;16.00;22.50;;;;;;5035577;28;20434;-69
2022/05/06 10:11:14;;;;;;;15.00;13.70;;;15.40;23.80;;;;;;5035011;28;20492;-68
2022/05/06 10:13:44;;;;;;;13.33;12.20;;;15.90;23.10;;;;;;5035541;28;20779;-68
2022/05/06 10:16:11;;;;;;;13.53;12.40;;;15.70;22.30;;;;;;5034858;28;20910;-68
2022/05/06 10:18:38;;;;;;;13.40;12.40;;;16.20;22.60;;;;;;5036548;28;20460;-67
2022/05/06 10:21:45;;;;;;;14.63;13.43;;;15.80;22.30;;;;;;5036510;28;20778;-68
2022/05/06 10:24:15;;;;;;;14.30;13.20;;;15.90;22.80;;;;;;5036810;28;20512;-68
2022/05/06 10:26:51;;;;;;;12.90;12.00;;;15.90;21.70;;;;;;5036387;28;20430;-68
2022/05/06 10:32:26;;;;;;;12.87;11.80;;;15.40;23.00;;;;;;5036423;28;20844;-68
2022/05/06 10:34:58;;;;;;;14.53;13.33;;;15.50;23.00;;;;;;5037289;28;20429;-68
2022/05/06 10:37:28;;;;;;;14.87;13.80;;;15.50;22.60;;;;;;5036310;28;20413;-68
2022/05/06 10:39:55;;;;;;;14.30;13.10;;;15.60;22.40;;;;;;5037009;28;20438;-71
2022/05/06 10:42:33;;;;;;;13.33;12.33;;;16.10;22.50;;;;;;5035988;28;20432;-68
2022/05/06 10:44:58;;;;;;;14.77;13.37;;;15.60;22.20;;;;;;5036833;28;20456;-68
2022/05/06 10:47:42;;;;;;;12.50;11.73;;;16.00;22.00;;;;;;5034943;28;20820;-69
2022/05/06 10:50:23;;;;;;;13.80;12.80;;;16.60;22.20;;;;;;5035606;28;20717;-68
2022/05/06 10:52:50;;;;;;;12.57;11.63;;;16.60;20.10;;;;;;5036676;28;20940;-68
2022/05/06 10:55:17;;;;;;;15.40;14.07;;;16.10;22.50;;;;;;5036025;28;20414;-69
2022/05/06 10:57:51;;;;;;;15.93;14.27;;;16.70;20.80;;;;;;5035062;28;20410;-69
2022/05/06 11:00:18;;;;;;;17.07;15.77;;;16.90;20.40;;;;;;5035716;28;20440;-69
2022/05/06 11:02:44;;;;;;;14.60;13.60;;;16.60;20.50;;;;;;5036214;28;20422;-68
2022/05/06 11:05:15;;;;;;;15.60;14.37;;;16.60;20.60;;;;;;5036027;28;20468;-69
2022/05/06 11:07:43;;;;;;;14.63;13.73;;;16.70;19.60;;;;;;5036276;28;20417;-69
2022/05/06 11:10:19;;;;;;;16.13;15.13;;;16.90;19.40;;;;;;5034716;28;20450;-69
2022/05/06 11:12:47;;;;;;;14.83;13.90;;;16.80;19.50;;;;;;5035537;28;20406;-69
2022/05/06 11:15:15;;;;;;;14.67;13.47;;;16.70;20.20;;;;;;5036404;28;20986;-70
2022/05/06 11:17:42;;;;;;;14.27;13.13;;;16.40;20.50;;;;;;5035318;28;20564;-67
2022/05/06 11:20:27;;;;;;;15.67;14.67;;;16.70;21.50;;;;;;5035349;28;20432;-69
2022/05/06 11:22:57;;;;;;;16.40;15.10;;;16.90;18.80;;;;;;5034819;28;20425;-68
2022/05/06 11:25:23;;;;;;;15.80;14.50;;;16.40;20.40;;;;;;5035740;28;20418;-68
2022/05/06 11:27:51;;;;;;;15.00;14.10;;;16.90;19.50;;;;;;5035437;28;20789;-68
2022/05/06 11:30:18;;;;;;;16.43;14.63;;;16.90;19.50;;;;;;5035539;28;20494;-68
2022/05/06 11:32:55;;;;;;;14.30;13.43;;;17.00;19.50;;;;;;5033531;28;20426;-69
2022/05/06 11:35:28;;;;;;;16.43;15.23;;;17.20;19.60;;;;;;5034832;28;20760;-69
2022/05/06 11:37:55;;;;;;;14.30;13.40;;;16.90;18.80;;;;;;5034635;28;20430;-68
2022/05/06 11:42:50;;;;;;;14.97;14.07;;;16.70;19.20;;;;;;5034482;28;20414;-68
2022/05/06 11:48:05;;;;;;;15.10;14.10;;;17.70;17.50;;;;;;5034183;28;20257;-68
2022/05/06 11:50:33;;;;;;;15.63;14.37;;;17.40;17.10;;;;;;5036125;28;20527;-68
2022/05/06 11:52:59;;;;;;;13.40;12.70;;;16.80;18.50;;;;;;5034637;28;20789;-68
2022/05/06 11:55:25;;;;;;;14.80;13.63;;;17.00;18.90;;;;;;5034832;28;20428;-68
2022/05/06 11:57:51;;;;;;;15.93;14.80;;;16.90;19.60;;;;;;5034165;28;20488;-69
2022/05/06 12:00:17;;;;;;;16.77;15.23;;;17.10;19.00;;;;;;5034123;28;20911;-68
2022/05/06 12:02:48;;;;;;;16.90;15.63;;;17.50;19.00;;;;;;5033686;28;20417;-68
2022/05/06 12:05:14;;;;;;;15.40;13.87;;;16.80;18.70;;;;;;5036347;28;20429;-68
2022/05/06 12:07:41;;;;;;;14.93;13.83;;;17.20;18.70;;;;;;5030225;28;20442;-67
2022/05/06 12:10:07;;;;;;;14.50;13.50;;;17.00;17.90;;;;;;5025686;28;20466;-69
2022/05/06 12:12:32;;;;;;;15.60;14.40;;;17.00;18.30;;;;;;5032724;28;20525;-69
2022/05/06 12:15:16;;;;;;;14.73;13.40;;;17.00;18.90;;;;;;5020099;28;20202;-69
2022/05/06 12:17:42;;;;;;;14.50;13.40;;;16.60;18.60;;;;;;5016321;28;20182;-69
2022/05/06 12:20:36;;;;;;;14.50;13.53;;;16.50;19.70;;;;;;5033023;28;20433;-69
2022/05/06 12:23:02;;;;;;;14.30;13.50;;;17.20;19.00;;;;;;5014698;28;20808;-69
2022/05/06 12:25:28;;;;;;;14.93;13.63;;;17.30;17.80;;;;;;5023504;28;20418;-71
2022/05/06 12:28:23;;;;;;;15.53;14.47;;;17.60;17.70;;;;;;5018562;28;20464;-68
2022/05/06 12:30:56;;;;;;;14.70;13.70;;;17.90;17.10;;;;;;5028320;28;20465;-68
2022/05/06 12:33:22;;;;;;;15.83;14.70;;;18.20;17.00;;;;;;5029181;28;20421;-68
2022/05/06 12:35:56;;;;;;;13.77;12.80;;;18.00;16.50;;;;;;5021716;28;20468;-68
2022/05/06 12:38:41;;;;;;;14.83;13.83;;;17.90;16.80;;;;;;5033826;28;20426;-68
2022/05/06 12:41:25;;;;;;;14.53;13.43;;;17.40;17.70;;;;;;5034419;28;20410;-68
2022/05/06 12:43:57;;;;;;;15.27;14.17;;;17.30;17.40;;;;;;5033918;28;20421;-68
2022/05/06 12:46:30;;;;;;;16.27;15.10;;;17.50;17.70;;;;;;5018200;28;20448;-68
2022/05/06 12:51:43;;;;;;;15.10;14.00;;;17.30;17.40;;;;;;5034286;28;20464;-69
2022/05/06 12:54:10;;;;;;;16.70;15.50;;;17.60;17.30;;;;;;5032604;28;20406;-68
2022/05/06 12:56:37;;;;;;;13.83;12.93;;;17.80;16.40;;;;;;5033691;28;20414;-69
2022/05/06 12:59:03;;;;;;;15.03;13.93;;;17.30;17.40;;;;;;5033844;28;20437;-69
2022/05/06 13:01:28;;;;;;;15.37;14.17;;;17.10;18.20;;;;;;5032716;28;20414;-69
2022/05/06 13:03:54;;;;;;;16.87;15.67;;;17.10;18.10;;;;;;5032268;28;20429;-69
2022/05/06 13:06:19;;;;;;;15.60;14.50;;;17.20;17.50;;;;;;5032643;28;20255;-68
2022/05/06 13:08:45;;;;;;;16.60;15.40;;;17.30;18.20;;;;;;5031913;28;20195;-69
2022/05/06 13:11:11;;;;;;;16.70;15.50;;;17.20;18.10;;;;;;5032176;28;20202;-69
2022/05/06 13:13:36;;;;;;;14.87;14.07;;;17.60;17.20;;;;;;5032104;28;20210;-69
2022/05/06 13:16:02;;;;;;;14.40;13.60;;;17.70;17.20;;;;;;5030448;28;20215;-68